sensor_id;sensor_type;location;lat;lon;timestamp;P1;durP1;ratioP1;P2;durP2;ratioP2
39032;SDS011;24794;51.982;5.878;2023-05-15T00:00:04;11.35;;;8.45;;
39032;SDS011;24794;51.982;5.878;2023-05-15T00:01:05;11.15;;;8.35;;
39032;SDS011;24794;51.982;5.878;2023-05-15T00:02:06;11.13;;;8.50;;
39032;SDS011;24794;51.982;5.878;2023-05-15T00:03:06;10.52;;;8.43;;
39032;SDS011;24794;51.982;5.878;2023-05-15T00:04:07;12.93;;;9.65;;
39032;SDS011;24794;51.982;5.878;2023-05-15T00:05:07;12.07;;;8.57;;
39032;SDS011;24794;51.982;5.878;2023-05-15T00:06:08;13.30;;;8.75;;
39032;SDS011;24794;51.982;5.878;2023-05-15T00:07:08;12.85;;;8.80;;
39032;SDS011;24794;51.982;5.878;2023-05-15T00:08:09;12.55;;;9.05;;
39032;SDS011;24794;51.982;5.878;2023-05-15T00:09:10;10.57;;;9.02;;
39032;SDS011;24794;51.982;5.878;2023-05-15T00:10:11;12.10;;;8.48;;
39032;SDS011;24794;51.982;5.878;2023-05-15T00:11:11;9.00;;;7.82;;
39032;SDS011;24794;51.982;5.878;2023-05-15T00:12:12;14.18;;;10.57;;
39032;SDS011;24794;51.982;5.878;2023-05-15T00:13:13;15.57;;;10.30;;
39032;SDS011;24794;51.982;5.878;2023-05-15T00:14:13;13.35;;;9.90;;
39032;SDS011;24794;51.982;5.878;2023-05-15T00:15:14;10.30;;;8.82;;
39032;SDS011;24794;51.982;5.878;2023-05-15T00:16:14;11.43;;;9.43;;
39032;SDS011;24794;51.982;5.878;2023-05-15T00:17:15;12.38;;;9.02;;
39032;SDS011;24794;51.982;5.878;2023-05-15T00:18:16;11.25;;;8.60;;
39032;SDS011;24794;51.982;5.878;2023-05-15T00:19:16;13.07;;;9.65;;
39032;SDS011;24794;51.982;5.878;2023-05-15T00:20:17;14.75;;;9.35;;
39032;SDS011;24794;51.982;5.878;2023-05-15T00:21:17;10.75;;;8.48;;
39032;SDS011;24794;51.982;5.878;2023-05-15T00:22:18;11.13;;;8.13;;
39032;SDS011;24794;51.982;5.878;2023-05-15T00:23:18;11.45;;;8.57;;
39032;SDS011;24794;51.982;5.878;2023-05-15T00:24:20;10.55;;;8.25;;
39032;SDS011;24794;51.982;5.878;2023-05-15T00:25:20;11.57;;;9.10;;
39032;SDS011;24794;51.982;5.878;2023-05-15T00:26:21;10.43;;;8.45;;
39032;SDS011;24794;51.982;5.878;2023-05-15T00:27:23;12.20;;;8.80;;
39032;SDS011;24794;51.982;5.878;2023-05-15T00:28:23;13.25;;;8.43;;
39032;SDS011;24794;51.982;5.878;2023-05-15T00:29:24;12.55;;;8.70;;
39032;SDS011;24794;51.982;5.878;2023-05-15T00:30:24;10.02;;;8.23;;
39032;SDS011;24794;51.982;5.878;2023-05-15T00:31:25;12.52;;;8.30;;
39032;SDS011;24794;51.982;5.878;2023-05-15T00:32:25;10.50;;;8.98;;
39032;SDS011;24794;51.982;5.878;2023-05-15T00:33:26;10.38;;;7.90;;
39032;SDS011;24794;51.982;5.878;2023-05-15T00:34:26;16.30;;;10.00;;
39032;SDS011;24794;51.982;5.878;2023-05-15T00:35:27;11.90;;;8.40;;
39032;SDS011;24794;51.982;5.878;2023-05-15T00:36:27;14.73;;;8.73;;
39032;SDS011;24794;51.982;5.878;2023-05-15T00:37:28;14.32;;;10.05;;
39032;SDS011;24794;51.982;5.878;2023-05-15T00:38:29;11.55;;;9.07;;
39032;SDS011;24794;51.982;5.878;2023-05-15T00:39:30;13.00;;;9.02;;
39032;SDS011;24794;51.982;5.878;2023-05-15T00:40:30;10.85;;;7.72;;
39032;SDS011;24794;51.982;5.878;2023-05-15T00:41:32;10.70;;;7.78;;
39032;SDS011;24794;51.982;5.878;2023-05-15T00:42:34;11.88;;;8.88;;
39032;SDS011;24794;51.982;5.878;2023-05-15T00:43:35;11.00;;;8.20;;
39032;SDS011;24794;51.982;5.878;2023-05-15T00:44:37;9.75;;;7.00;;
39032;SDS011;24794;51.982;5.878;2023-05-15T00:45:40;9.75;;;7.43;;
39032;SDS011;24794;51.982;5.878;2023-05-15T00:46:42;10.13;;;8.05;;
39032;SDS011;24794;51.982;5.878;2023-05-15T00:47:45;10.15;;;7.85;;
39032;SDS011;24794;51.982;5.878;2023-05-15T00:48:46;12.95;;;7.90;;
39032;SDS011;24794;51.982;5.878;2023-05-15T00:49:49;11.27;;;8.93;;
39032;SDS011;24794;51.982;5.878;2023-05-15T00:50:50;10.70;;;8.38;;
39032;SDS011;24794;51.982;5.878;2023-05-15T00:51:51;11.60;;;8.95;;
39032;SDS011;24794;51.982;5.878;2023-05-15T00:52:52;12.68;;;9.30;;
39032;SDS011;24794;51.982;5.878;2023-05-15T00:53:54;11.95;;;8.10;;
39032;SDS011;24794;51.982;5.878;2023-05-15T00:54:55;11.13;;;7.68;;
39032;SDS011;24794;51.982;5.878;2023-05-15T00:55:56;10.40;;;8.82;;
39032;SDS011;24794;51.982;5.878;2023-05-15T00:56:58;8.93;;;7.80;;
39032;SDS011;24794;51.982;5.878;2023-05-15T00:58:00;12.50;;;7.93;;
39032;SDS011;24794;51.982;5.878;2023-05-15T00:59:01;9.43;;;7.55;;
39032;SDS011;24794;51.982;5.878;2023-05-15T01:00:03;13.82;;;8.23;;
39032;SDS011;24794;51.982;5.878;2023-05-15T01:01:09;9.45;;;7.60;;
39032;SDS011;24794;51.982;5.878;2023-05-15T01:02:10;11.30;;;8.45;;
39032;SDS011;24794;51.982;5.878;2023-05-15T01:03:12;14.07;;;9.73;;
39032;SDS011;24794;51.982;5.878;2023-05-15T01:04:12;10.35;;;8.25;;
39032;SDS011;24794;51.982;5.878;2023-05-15T01:05:13;17.77;;;8.73;;
39032;SDS011;24794;51.982;5.878;2023-05-15T01:06:14;9.98;;;8.43;;
39032;SDS011;24794;51.982;5.878;2023-05-15T01:07:15;8.73;;;7.43;;
39032;SDS011;24794;51.982;5.878;2023-05-15T01:09:26;13.40;;;9.60;;
39032;SDS011;24794;51.982;5.878;2023-05-15T01:10:29;12.63;;;9.02;;
39032;SDS011;24794;51.982;5.878;2023-05-15T01:11:32;12.70;;;9.27;;
39032;SDS011;24794;51.982;5.878;2023-05-15T01:12:36;11.10;;;8.85;;
39032;SDS011;24794;51.982;5.878;2023-05-15T01:13:39;11.57;;;9.02;;
39032;SDS011;24794;51.982;5.878;2023-05-15T01:14:40;16.17;;;9.43;;
39032;SDS011;24794;51.982;5.878;2023-05-15T01:15:40;17.25;;;11.63;;
39032;SDS011;24794;51.982;5.878;2023-05-15T01:16:41;15.05;;;11.55;;
39032;SDS011;24794;51.982;5.878;2023-05-15T01:17:41;13.27;;;10.75;;
39032;SDS011;24794;51.982;5.878;2023-05-15T01:18:42;10.80;;;9.55;;
39032;SDS011;24794;51.982;5.878;2023-05-15T01:19:42;11.60;;;9.45;;
39032;SDS011;24794;51.982;5.878;2023-05-15T01:20:47;12.63;;;9.52;;
39032;SDS011;24794;51.982;5.878;2023-05-15T01:22:14;11.13;;;8.90;;
39032;SDS011;24794;51.982;5.878;2023-05-15T01:25:14;11.57;;;8.75;;
39032;SDS011;24794;51.982;5.878;2023-05-15T01:29:35;11.70;;;9.48;;
39032;SDS011;24794;51.982;5.878;2023-05-15T01:30:37;12.30;;;9.60;;
39032;SDS011;24794;51.982;5.878;2023-05-15T01:31:41;11.40;;;8.90;;
39032;SDS011;24794;51.982;5.878;2023-05-15T01:34:00;13.18;;;10.35;;
39032;SDS011;24794;51.982;5.878;2023-05-15T01:35:11;13.02;;;9.10;;
39032;SDS011;24794;51.982;5.878;2023-05-15T01:36:20;13.77;;;10.00;;
39032;SDS011;24794;51.982;5.878;2023-05-15T01:37:30;12.57;;;9.43;;
39032;SDS011;24794;51.982;5.878;2023-05-15T01:39:36;11.48;;;8.90;;
39032;SDS011;24794;51.982;5.878;2023-05-15T01:40:39;13.88;;;9.93;;
39032;SDS011;24794;51.982;5.878;2023-05-15T01:41:45;15.23;;;9.55;;
39032;SDS011;24794;51.982;5.878;2023-05-15T01:43:08;19.02;;;11.00;;
39032;SDS011;24794;51.982;5.878;2023-05-15T01:44:18;15.45;;;10.57;;
39032;SDS011;24794;51.982;5.878;2023-05-15T01:45:25;12.95;;;9.43;;
39032;SDS011;24794;51.982;5.878;2023-05-15T01:46:28;12.32;;;9.48;;
39032;SDS011;24794;51.982;5.878;2023-05-15T01:47:32;13.95;;;9.65;;
39032;SDS011;24794;51.982;5.878;2023-05-15T01:48:38;13.93;;;9.98;;
39032;SDS011;24794;51.982;5.878;2023-05-15T01:49:40;12.93;;;10.38;;
39032;SDS011;24794;51.982;5.878;2023-05-15T01:50:44;13.80;;;10.48;;
39032;SDS011;24794;51.982;5.878;2023-05-15T01:51:46;11.02;;;9.27;;
39032;SDS011;24794;51.982;5.878;2023-05-15T01:52:52;16.05;;;9.82;;
39032;SDS011;24794;51.982;5.878;2023-05-15T01:53:55;16.13;;;10.75;;
39032;SDS011;24794;51.982;5.878;2023-05-15T01:54:59;12.73;;;9.88;;
39032;SDS011;24794;51.982;5.878;2023-05-15T01:56:01;13.57;;;10.02;;
39032;SDS011;24794;51.982;5.878;2023-05-15T01:57:05;13.15;;;9.48;;
39032;SDS011;24794;51.982;5.878;2023-05-15T01:58:07;12.18;;;9.05;;
39032;SDS011;24794;51.982;5.878;2023-05-15T01:59:08;13.18;;;9.45;;
39032;SDS011;24794;51.982;5.878;2023-05-15T02:00:12;12.73;;;10.00;;
39032;SDS011;24794;51.982;5.878;2023-05-15T02:01:13;14.07;;;9.35;;
39032;SDS011;24794;51.982;5.878;2023-05-15T02:02:15;14.93;;;9.90;;
39032;SDS011;24794;51.982;5.878;2023-05-15T02:03:17;14.05;;;9.57;;
39032;SDS011;24794;51.982;5.878;2023-05-15T02:04:19;12.70;;;9.57;;
39032;SDS011;24794;51.982;5.878;2023-05-15T02:05:21;13.45;;;9.77;;
39032;SDS011;24794;51.982;5.878;2023-05-15T02:06:22;13.15;;;9.30;;
39032;SDS011;24794;51.982;5.878;2023-05-15T02:07:24;14.30;;;10.60;;
39032;SDS011;24794;51.982;5.878;2023-05-15T02:08:25;11.50;;;9.43;;
39032;SDS011;24794;51.982;5.878;2023-05-15T02:09:27;12.38;;;9.43;;
39032;SDS011;24794;51.982;5.878;2023-05-15T02:10:29;11.73;;;9.13;;
39032;SDS011;24794;51.982;5.878;2023-05-15T02:11:31;12.48;;;8.68;;
39032;SDS011;24794;51.982;5.878;2023-05-15T02:12:33;15.57;;;11.30;;
39032;SDS011;24794;51.982;5.878;2023-05-15T02:13:34;16.30;;;11.48;;
39032;SDS011;24794;51.982;5.878;2023-05-15T02:14:35;18.38;;;10.10;;
39032;SDS011;24794;51.982;5.878;2023-05-15T02:15:36;12.55;;;10.07;;
39032;SDS011;24794;51.982;5.878;2023-05-15T02:16:37;12.27;;;9.93;;
39032;SDS011;24794;51.982;5.878;2023-05-15T02:17:38;10.50;;;8.90;;
39032;SDS011;24794;51.982;5.878;2023-05-15T02:18:39;12.07;;;8.73;;
39032;SDS011;24794;51.982;5.878;2023-05-15T02:19:40;11.95;;;9.43;;
39032;SDS011;24794;51.982;5.878;2023-05-15T02:20:40;11.65;;;8.55;;
39032;SDS011;24794;51.982;5.878;2023-05-15T02:21:41;9.60;;;8.18;;
39032;SDS011;24794;51.982;5.878;2023-05-15T02:22:41;11.43;;;8.73;;
39032;SDS011;24794;51.982;5.878;2023-05-15T02:23:42;10.50;;;8.82;;
39032;SDS011;24794;51.982;5.878;2023-05-15T02:24:42;11.60;;;8.88;;
39032;SDS011;24794;51.982;5.878;2023-05-15T02:25:49;13.32;;;9.82;;
39032;SDS011;24794;51.982;5.878;2023-05-15T02:28:14;11.85;;;9.68;;
39032;SDS011;24794;51.982;5.878;2023-05-15T02:31:00;12.68;;;10.40;;
39032;SDS011;24794;51.982;5.878;2023-05-15T02:36:06;10.77;;;8.90;;
39032;SDS011;24794;51.982;5.878;2023-05-15T02:37:12;12.40;;;9.68;;
39032;SDS011;24794;51.982;5.878;2023-05-15T02:38:22;10.70;;;8.85;;
39032;SDS011;24794;51.982;5.878;2023-05-15T02:39:42;11.32;;;9.40;;
39032;SDS011;24794;51.982;5.878;2023-05-15T02:40:44;15.60;;;10.25;;
39032;SDS011;24794;51.982;5.878;2023-05-15T02:41:47;14.20;;;10.95;;
39032;SDS011;24794;51.982;5.878;2023-05-15T02:42:49;13.55;;;10.00;;
39032;SDS011;24794;51.982;5.878;2023-05-15T02:43:52;11.57;;;9.35;;
39032;SDS011;24794;51.982;5.878;2023-05-15T02:44:54;14.05;;;9.48;;
39032;SDS011;24794;51.982;5.878;2023-05-15T02:45:56;12.75;;;9.38;;
39032;SDS011;24794;51.982;5.878;2023-05-15T02:46:58;11.82;;;9.40;;
39032;SDS011;24794;51.982;5.878;2023-05-15T02:48:01;13.57;;;10.10;;
39032;SDS011;24794;51.982;5.878;2023-05-15T02:49:03;11.40;;;8.85;;
39032;SDS011;24794;51.982;5.878;2023-05-15T02:50:04;11.98;;;9.45;;
39032;SDS011;24794;51.982;5.878;2023-05-15T02:51:05;14.27;;;10.02;;
39032;SDS011;24794;51.982;5.878;2023-05-15T02:52:06;13.13;;;9.63;;
39032;SDS011;24794;51.982;5.878;2023-05-15T02:53:07;13.07;;;10.23;;
39032;SDS011;24794;51.982;5.878;2023-05-15T02:54:08;13.05;;;9.43;;
39032;SDS011;24794;51.982;5.878;2023-05-15T02:55:10;14.07;;;9.57;;
39032;SDS011;24794;51.982;5.878;2023-05-15T02:56:10;13.10;;;9.90;;
39032;SDS011;24794;51.982;5.878;2023-05-15T02:57:11;14.88;;;9.77;;
39032;SDS011;24794;51.982;5.878;2023-05-15T02:58:11;15.63;;;11.23;;
39032;SDS011;24794;51.982;5.878;2023-05-15T02:59:12;14.27;;;10.20;;
39032;SDS011;24794;51.982;5.878;2023-05-15T03:00:17;12.55;;;9.20;;
39032;SDS011;24794;51.982;5.878;2023-05-15T03:01:18;13.73;;;9.30;;
39032;SDS011;24794;51.982;5.878;2023-05-15T03:02:19;13.85;;;8.77;;
39032;SDS011;24794;51.982;5.878;2023-05-15T03:03:19;13.02;;;10.88;;
39032;SDS011;24794;51.982;5.878;2023-05-15T03:04:20;17.90;;;11.23;;
39032;SDS011;24794;51.982;5.878;2023-05-15T03:05:20;17.75;;;12.88;;
39032;SDS011;24794;51.982;5.878;2023-05-15T03:06:21;16.63;;;12.77;;
39032;SDS011;24794;51.982;5.878;2023-05-15T03:07:21;18.73;;;13.57;;
39032;SDS011;24794;51.982;5.878;2023-05-15T03:08:22;14.18;;;11.95;;
39032;SDS011;24794;51.982;5.878;2023-05-15T03:09:22;16.95;;;11.60;;
39032;SDS011;24794;51.982;5.878;2023-05-15T03:10:24;15.70;;;11.65;;
39032;SDS011;24794;51.982;5.878;2023-05-15T03:11:24;19.42;;;13.90;;
39032;SDS011;24794;51.982;5.878;2023-05-15T03:12:25;23.02;;;16.48;;
39032;SDS011;24794;51.982;5.878;2023-05-15T03:13:25;21.30;;;15.20;;
39032;SDS011;24794;51.982;5.878;2023-05-15T03:14:26;19.88;;;14.48;;
39032;SDS011;24794;51.982;5.878;2023-05-15T03:15:26;21.92;;;14.70;;
39032;SDS011;24794;51.982;5.878;2023-05-15T03:16:27;22.08;;;15.55;;
39032;SDS011;24794;51.982;5.878;2023-05-15T03:17:28;20.70;;;15.40;;
39032;SDS011;24794;51.982;5.878;2023-05-15T03:18:28;20.77;;;14.73;;
39032;SDS011;24794;51.982;5.878;2023-05-15T03:19:29;23.33;;;16.10;;
39032;SDS011;24794;51.982;5.878;2023-05-15T03:20:30;26.77;;;16.40;;
39032;SDS011;24794;51.982;5.878;2023-05-15T03:21:30;21.92;;;15.93;;
39032;SDS011;24794;51.982;5.878;2023-05-15T03:22:31;25.70;;;18.17;;
39032;SDS011;24794;51.982;5.878;2023-05-15T03:23:31;23.85;;;17.98;;
39032;SDS011;24794;51.982;5.878;2023-05-15T03:24:32;22.17;;;16.40;;
39032;SDS011;24794;51.982;5.878;2023-05-15T03:25:32;28.50;;;18.88;;
39032;SDS011;24794;51.982;5.878;2023-05-15T03:26:33;23.52;;;16.40;;
39032;SDS011;24794;51.982;5.878;2023-05-15T03:27:33;42.97;;;17.00;;
39032;SDS011;24794;51.982;5.878;2023-05-15T03:28:34;21.65;;;15.18;;
39032;SDS011;24794;51.982;5.878;2023-05-15T03:29:34;28.77;;;16.38;;
39032;SDS011;24794;51.982;5.878;2023-05-15T03:30:35;21.35;;;15.10;;
39032;SDS011;24794;51.982;5.878;2023-05-15T03:31:35;24.80;;;16.00;;
39032;SDS011;24794;51.982;5.878;2023-05-15T03:32:36;35.22;;;17.55;;
39032;SDS011;24794;51.982;5.878;2023-05-15T03:33:36;36.13;;;16.67;;
39032;SDS011;24794;51.982;5.878;2023-05-15T03:34:37;20.65;;;15.18;;
39032;SDS011;24794;51.982;5.878;2023-05-15T03:35:37;20.70;;;14.23;;
39032;SDS011;24794;51.982;5.878;2023-05-15T03:36:38;24.67;;;15.57;;
39032;SDS011;24794;51.982;5.878;2023-05-15T03:37:39;23.08;;;15.85;;
39032;SDS011;24794;51.982;5.878;2023-05-15T03:38:39;27.08;;;17.35;;
39032;SDS011;24794;51.982;5.878;2023-05-15T03:39:40;30.98;;;17.67;;
39032;SDS011;24794;51.982;5.878;2023-05-15T03:40:40;27.67;;;17.90;;
39032;SDS011;24794;51.982;5.878;2023-05-15T03:41:41;24.77;;;16.60;;
39032;SDS011;24794;51.982;5.878;2023-05-15T03:42:41;21.77;;;14.52;;
39032;SDS011;24794;51.982;5.878;2023-05-15T03:43:42;25.13;;;17.60;;
39032;SDS011;24794;51.982;5.878;2023-05-15T03:44:42;22.65;;;15.88;;
39032;SDS011;24794;51.982;5.878;2023-05-15T03:45:43;29.70;;;17.27;;
39032;SDS011;24794;51.982;5.878;2023-05-15T03:46:43;26.17;;;18.67;;
39032;SDS011;24794;51.982;5.878;2023-05-15T03:47:44;22.27;;;16.05;;
39032;SDS011;24794;51.982;5.878;2023-05-15T03:48:44;26.27;;;17.30;;
39032;SDS011;24794;51.982;5.878;2023-05-15T03:49:45;22.27;;;16.42;;
39032;SDS011;24794;51.982;5.878;2023-05-15T03:50:46;22.27;;;15.75;;
39032;SDS011;24794;51.982;5.878;2023-05-15T03:51:46;22.10;;;14.15;;
39032;SDS011;24794;51.982;5.878;2023-05-15T03:52:47;18.88;;;13.82;;
39032;SDS011;24794;51.982;5.878;2023-05-15T03:53:47;18.58;;;13.95;;
39032;SDS011;24794;51.982;5.878;2023-05-15T03:54:48;22.95;;;14.38;;
39032;SDS011;24794;51.982;5.878;2023-05-15T03:55:49;24.55;;;17.20;;
39032;SDS011;24794;51.982;5.878;2023-05-15T03:56:49;21.77;;;14.95;;
39032;SDS011;24794;51.982;5.878;2023-05-15T03:57:50;17.85;;;13.50;;
39032;SDS011;24794;51.982;5.878;2023-05-15T03:58:51;19.45;;;13.93;;
39032;SDS011;24794;51.982;5.878;2023-05-15T03:59:52;20.17;;;15.55;;
39032;SDS011;24794;51.982;5.878;2023-05-15T04:00:53;21.23;;;15.40;;
39032;SDS011;24794;51.982;5.878;2023-05-15T04:01:53;25.75;;;16.00;;
39032;SDS011;24794;51.982;5.878;2023-05-15T04:02:54;25.42;;;17.42;;
39032;SDS011;24794;51.982;5.878;2023-05-15T04:03:54;27.58;;;18.10;;
39032;SDS011;24794;51.982;5.878;2023-05-15T04:04:55;25.42;;;16.75;;
39032;SDS011;24794;51.982;5.878;2023-05-15T04:05:55;20.40;;;15.18;;
39032;SDS011;24794;51.982;5.878;2023-05-15T04:06:56;26.23;;;17.25;;
39032;SDS011;24794;51.982;5.878;2023-05-15T04:07:56;25.58;;;16.90;;
39032;SDS011;24794;51.982;5.878;2023-05-15T04:08:57;25.05;;;16.83;;
39032;SDS011;24794;51.982;5.878;2023-05-15T04:09:57;27.23;;;18.67;;
39032;SDS011;24794;51.982;5.878;2023-05-15T04:11:01;24.23;;;17.05;;
39032;SDS011;24794;51.982;5.878;2023-05-15T04:12:01;24.98;;;16.27;;
39032;SDS011;24794;51.982;5.878;2023-05-15T04:13:02;21.25;;;15.82;;
39032;SDS011;24794;51.982;5.878;2023-05-15T04:14:02;30.00;;;20.10;;
39032;SDS011;24794;51.982;5.878;2023-05-15T04:15:36;25.92;;;17.85;;
39032;SDS011;24794;51.982;5.878;2023-05-15T04:16:29;22.75;;;16.70;;
39032;SDS011;24794;51.982;5.878;2023-05-15T04:17:30;27.08;;;18.38;;
39032;SDS011;24794;51.982;5.878;2023-05-15T04:18:30;23.55;;;16.55;;
39032;SDS011;24794;51.982;5.878;2023-05-15T04:19:31;27.80;;;19.27;;
39032;SDS011;24794;51.982;5.878;2023-05-15T04:20:31;24.75;;;18.17;;
39032;SDS011;24794;51.982;5.878;2023-05-15T04:21:32;26.83;;;17.50;;
39032;SDS011;24794;51.982;5.878;2023-05-15T04:22:33;26.35;;;18.33;;
39032;SDS011;24794;51.982;5.878;2023-05-15T04:23:33;25.02;;;16.48;;
39032;SDS011;24794;51.982;5.878;2023-05-15T04:24:34;20.23;;;14.48;;
39032;SDS011;24794;51.982;5.878;2023-05-15T04:25:34;18.85;;;15.07;;
39032;SDS011;24794;51.982;5.878;2023-05-15T04:26:36;26.45;;;17.65;;
39032;SDS011;24794;51.982;5.878;2023-05-15T04:27:37;24.00;;;17.08;;
39032;SDS011;24794;51.982;5.878;2023-05-15T04:28:38;23.48;;;16.02;;
39032;SDS011;24794;51.982;5.878;2023-05-15T04:29:38;24.85;;;17.40;;
39032;SDS011;24794;51.982;5.878;2023-05-15T04:30:39;20.52;;;15.60;;
39032;SDS011;24794;51.982;5.878;2023-05-15T04:31:40;23.38;;;16.42;;
39032;SDS011;24794;51.982;5.878;2023-05-15T04:32:41;24.15;;;17.08;;
39032;SDS011;24794;51.982;5.878;2023-05-15T04:33:41;29.73;;;18.60;;
39032;SDS011;24794;51.982;5.878;2023-05-15T04:34:42;22.95;;;16.63;;
39032;SDS011;24794;51.982;5.878;2023-05-15T04:35:42;22.95;;;15.82;;
39032;SDS011;24794;51.982;5.878;2023-05-15T04:36:43;24.05;;;16.63;;
39032;SDS011;24794;51.982;5.878;2023-05-15T04:37:44;22.52;;;15.38;;
39032;SDS011;24794;51.982;5.878;2023-05-15T04:38:44;18.48;;;14.18;;
39032;SDS011;24794;51.982;5.878;2023-05-15T04:39:45;25.33;;;16.08;;
39032;SDS011;24794;51.982;5.878;2023-05-15T04:40:45;25.23;;;17.38;;
39032;SDS011;24794;51.982;5.878;2023-05-15T04:41:46;23.08;;;15.85;;
39032;SDS011;24794;51.982;5.878;2023-05-15T04:42:46;30.25;;;20.65;;
39032;SDS011;24794;51.982;5.878;2023-05-15T04:43:47;22.98;;;16.58;;
39032;SDS011;24794;51.982;5.878;2023-05-15T04:44:47;29.45;;;19.65;;
39032;SDS011;24794;51.982;5.878;2023-05-15T04:45:48;30.42;;;21.20;;
39032;SDS011;24794;51.982;5.878;2023-05-15T04:46:48;26.17;;;18.95;;
39032;SDS011;24794;51.982;5.878;2023-05-15T04:47:49;30.95;;;20.48;;
39032;SDS011;24794;51.982;5.878;2023-05-15T04:48:50;21.60;;;17.00;;
39032;SDS011;24794;51.982;5.878;2023-05-15T04:49:50;26.83;;;19.50;;
39032;SDS011;24794;51.982;5.878;2023-05-15T04:50:51;27.27;;;18.20;;
39032;SDS011;24794;51.982;5.878;2023-05-15T04:51:51;20.63;;;16.15;;
39032;SDS011;24794;51.982;5.878;2023-05-15T04:52:52;31.38;;;17.90;;
39032;SDS011;24794;51.982;5.878;2023-05-15T04:53:53;23.83;;;16.77;;
39032;SDS011;24794;51.982;5.878;2023-05-15T04:54:53;24.15;;;16.80;;
39032;SDS011;24794;51.982;5.878;2023-05-15T04:55:54;25.27;;;17.75;;
39032;SDS011;24794;51.982;5.878;2023-05-15T04:56:55;20.80;;;16.42;;
39032;SDS011;24794;51.982;5.878;2023-05-15T04:57:56;21.38;;;15.73;;
39032;SDS011;24794;51.982;5.878;2023-05-15T04:58:57;17.02;;;13.77;;
39032;SDS011;24794;51.982;5.878;2023-05-15T04:59:57;26.63;;;18.55;;
39032;SDS011;24794;51.982;5.878;2023-05-15T05:00:58;33.00;;;20.92;;
39032;SDS011;24794;51.982;5.878;2023-05-15T05:01:59;25.20;;;18.02;;
39032;SDS011;24794;51.982;5.878;2023-05-15T05:03:00;25.80;;;18.05;;
39032;SDS011;24794;51.982;5.878;2023-05-15T05:04:01;27.60;;;19.42;;
39032;SDS011;24794;51.982;5.878;2023-05-15T05:05:01;23.48;;;16.45;;
39032;SDS011;24794;51.982;5.878;2023-05-15T05:06:02;21.75;;;15.80;;
39032;SDS011;24794;51.982;5.878;2023-05-15T05:07:03;23.00;;;15.82;;
39032;SDS011;24794;51.982;5.878;2023-05-15T05:08:04;22.83;;;16.17;;
39032;SDS011;24794;51.982;5.878;2023-05-15T05:09:05;32.17;;;20.67;;
39032;SDS011;24794;51.982;5.878;2023-05-15T05:10:05;30.05;;;20.38;;
39032;SDS011;24794;51.982;5.878;2023-05-15T05:11:07;33.33;;;22.45;;
39032;SDS011;24794;51.982;5.878;2023-05-15T05:12:07;32.78;;;21.80;;
39032;SDS011;24794;51.982;5.878;2023-05-15T05:13:08;27.45;;;18.88;;
39032;SDS011;24794;51.982;5.878;2023-05-15T05:14:09;24.23;;;17.42;;
39032;SDS011;24794;51.982;5.878;2023-05-15T05:15:10;25.67;;;17.35;;
39032;SDS011;24794;51.982;5.878;2023-05-15T05:16:10;21.05;;;15.25;;
39032;SDS011;24794;51.982;5.878;2023-05-15T05:17:11;21.42;;;15.52;;
39032;SDS011;24794;51.982;5.878;2023-05-15T05:18:11;18.70;;;14.15;;
39032;SDS011;24794;51.982;5.878;2023-05-15T05:19:12;20.67;;;14.18;;
39032;SDS011;24794;51.982;5.878;2023-05-15T05:20:12;19.55;;;13.93;;
39032;SDS011;24794;51.982;5.878;2023-05-15T05:21:13;16.92;;;13.52;;
39032;SDS011;24794;51.982;5.878;2023-05-15T05:22:13;18.15;;;14.45;;
39032;SDS011;24794;51.982;5.878;2023-05-15T05:23:14;29.25;;;19.35;;
39032;SDS011;24794;51.982;5.878;2023-05-15T05:24:15;23.77;;;16.98;;
39032;SDS011;24794;51.982;5.878;2023-05-15T05:25:15;25.30;;;17.13;;
39032;SDS011;24794;51.982;5.878;2023-05-15T05:26:16;20.83;;;15.82;;
39032;SDS011;24794;51.982;5.878;2023-05-15T05:27:16;21.05;;;15.35;;
39032;SDS011;24794;51.982;5.878;2023-05-15T05:28:17;19.77;;;14.88;;
39032;SDS011;24794;51.982;5.878;2023-05-15T05:29:17;26.08;;;19.00;;
39032;SDS011;24794;51.982;5.878;2023-05-15T05:30:18;29.40;;;20.75;;
39032;SDS011;24794;51.982;5.878;2023-05-15T05:31:19;21.88;;;17.45;;
39032;SDS011;24794;51.982;5.878;2023-05-15T05:32:20;22.90;;;16.17;;
39032;SDS011;24794;51.982;5.878;2023-05-15T05:33:20;20.20;;;15.63;;
39032;SDS011;24794;51.982;5.878;2023-05-15T05:34:21;20.55;;;15.13;;
39032;SDS011;24794;51.982;5.878;2023-05-15T05:35:21;22.10;;;14.82;;
39032;SDS011;24794;51.982;5.878;2023-05-15T05:36:22;19.30;;;13.85;;
39032;SDS011;24794;51.982;5.878;2023-05-15T05:37:22;20.15;;;13.70;;
39032;SDS011;24794;51.982;5.878;2023-05-15T05:38:23;23.98;;;16.70;;
39032;SDS011;24794;51.982;5.878;2023-05-15T05:39:25;21.55;;;15.95;;
39032;SDS011;24794;51.982;5.878;2023-05-15T05:40:25;18.10;;;13.95;;
39032;SDS011;24794;51.982;5.878;2023-05-15T05:41:26;18.60;;;14.40;;
39032;SDS011;24794;51.982;5.878;2023-05-15T05:42:26;18.83;;;13.57;;
39032;SDS011;24794;51.982;5.878;2023-05-15T05:43:27;24.30;;;16.63;;
39032;SDS011;24794;51.982;5.878;2023-05-15T05:44:27;26.33;;;18.05;;
39032;SDS011;24794;51.982;5.878;2023-05-15T05:45:28;26.08;;;17.17;;
39032;SDS011;24794;51.982;5.878;2023-05-15T05:46:29;22.33;;;16.27;;
39032;SDS011;24794;51.982;5.878;2023-05-15T05:47:29;17.75;;;13.68;;
39032;SDS011;24794;51.982;5.878;2023-05-15T05:48:30;20.52;;;14.20;;
39032;SDS011;24794;51.982;5.878;2023-05-15T05:49:30;24.85;;;16.98;;
39032;SDS011;24794;51.982;5.878;2023-05-15T05:50:31;22.25;;;16.80;;
39032;SDS011;24794;51.982;5.878;2023-05-15T05:51:33;23.58;;;16.02;;
39032;SDS011;24794;51.982;5.878;2023-05-15T05:52:35;21.92;;;15.10;;
39032;SDS011;24794;51.982;5.878;2023-05-15T05:53:36;16.67;;;13.25;;
39032;SDS011;24794;51.982;5.878;2023-05-15T05:54:36;16.52;;;12.98;;
39032;SDS011;24794;51.982;5.878;2023-05-15T05:55:37;23.80;;;16.80;;
39032;SDS011;24794;51.982;5.878;2023-05-15T05:56:38;26.25;;;17.00;;
39032;SDS011;24794;51.982;5.878;2023-05-15T05:57:38;20.10;;;14.68;;
39032;SDS011;24794;51.982;5.878;2023-05-15T05:58:39;20.33;;;14.63;;
39032;SDS011;24794;51.982;5.878;2023-05-15T05:59:39;19.50;;;14.23;;
39032;SDS011;24794;51.982;5.878;2023-05-15T06:00:40;21.20;;;14.40;;
39032;SDS011;24794;51.982;5.878;2023-05-15T06:01:40;18.48;;;13.02;;
39032;SDS011;24794;51.982;5.878;2023-05-15T06:02:41;19.23;;;13.82;;
39032;SDS011;24794;51.982;5.878;2023-05-15T06:03:42;15.73;;;13.07;;
39032;SDS011;24794;51.982;5.878;2023-05-15T06:04:43;15.00;;;12.35;;
39032;SDS011;24794;51.982;5.878;2023-05-15T06:05:44;18.83;;;13.82;;
39032;SDS011;24794;51.982;5.878;2023-05-15T06:06:45;23.27;;;15.27;;
39032;SDS011;24794;51.982;5.878;2023-05-15T06:07:46;17.92;;;13.57;;
39032;SDS011;24794;51.982;5.878;2023-05-15T06:08:47;18.80;;;13.52;;
39032;SDS011;24794;51.982;5.878;2023-05-15T06:09:47;18.00;;;13.60;;
39032;SDS011;24794;51.982;5.878;2023-05-15T06:10:48;17.92;;;13.57;;
39032;SDS011;24794;51.982;5.878;2023-05-15T06:11:48;17.90;;;12.73;;
39032;SDS011;24794;51.982;5.878;2023-05-15T06:12:49;16.67;;;12.07;;
39032;SDS011;24794;51.982;5.878;2023-05-15T06:13:49;16.20;;;12.90;;
39032;SDS011;24794;51.982;5.878;2023-05-15T06:14:50;15.82;;;11.43;;
39032;SDS011;24794;51.982;5.878;2023-05-15T06:15:51;13.02;;;10.80;;
39032;SDS011;24794;51.982;5.878;2023-05-15T06:16:51;13.80;;;10.68;;